sensor_id;sensor_type;location;lat;lon;timestamp;P1;durP1;ratioP1;P2;durP2;ratioP2
51602;SDS011;37954;51.980;5.850;2023-04-25T00:01:58;11.50;;;2.77;;
51602;SDS011;37954;51.980;5.850;2023-04-25T00:06:11;10.13;;;2.57;;
51602;SDS011;37954;51.980;5.850;2023-04-25T00:10:23;9.00;;;2.53;;
51602;SDS011;37954;51.980;5.850;2023-04-25T00:14:35;10.37;;;2.80;;
51602;SDS011;37954;51.980;5.850;2023-04-25T00:18:47;5.07;;;2.27;;
51602;SDS011;37954;51.980;5.850;2023-04-25T00:23:02;9.87;;;2.30;;
51602;SDS011;37954;51.980;5.850;2023-04-25T00:27:14;8.73;;;2.20;;
51602;SDS011;37954;51.980;5.850;2023-04-25T00:31:26;4.10;;;2.33;;
51602;SDS011;37954;51.980;5.850;2023-04-25T00:35:38;6.53;;;2.37;;
51602;SDS011;37954;51.980;5.850;2023-04-25T00:39:50;12.60;;;2.70;;
51602;SDS011;37954;51.980;5.850;2023-04-25T00:44:03;5.03;;;2.60;;
51602;SDS011;37954;51.980;5.850;2023-04-25T00:48:18;6.00;;;2.70;;
51602;SDS011;37954;51.980;5.850;2023-04-25T00:52:33;9.00;;;2.43;;
51602;SDS011;37954;51.980;5.850;2023-04-25T00:56:45;5.90;;;2.60;;
51602;SDS011;37954;51.980;5.850;2023-04-25T01:00:57;4.93;;;2.73;;
51602;SDS011;37954;51.980;5.850;2023-04-25T01:05:09;7.97;;;2.33;;
51602;SDS011;37954;51.980;5.850;2023-04-25T01:09:20;11.33;;;2.70;;
51602;SDS011;37954;51.980;5.850;2023-04-25T01:13:33;4.87;;;2.60;;
51602;SDS011;37954;51.980;5.850;2023-04-25T01:17:46;5.67;;;2.47;;
51602;SDS011;37954;51.980;5.850;2023-04-25T01:21:58;6.60;;;2.60;;
51602;SDS011;37954;51.980;5.850;2023-04-25T01:26:11;15.23;;;3.50;;
51602;SDS011;37954;51.980;5.850;2023-04-25T01:30:23;9.77;;;3.27;;
51602;SDS011;37954;51.980;5.850;2023-04-25T01:34:37;11.60;;;3.10;;
51602;SDS011;37954;51.980;5.850;2023-04-25T01:38:48;10.90;;;3.20;;
51602;SDS011;37954;51.980;5.850;2023-04-25T01:43:01;8.43;;;3.07;;
51602;SDS011;37954;51.980;5.850;2023-04-25T01:47:16;7.00;;;2.77;;
51602;SDS011;37954;51.980;5.850;2023-04-25T01:51:27;5.90;;;3.00;;
51602;SDS011;37954;51.980;5.850;2023-04-25T01:55:40;13.20;;;3.67;;
51602;SDS011;37954;51.980;5.850;2023-04-25T01:59:55;6.47;;;3.23;;
51602;SDS011;37954;51.980;5.850;2023-04-25T02:04:22;12.37;;;3.30;;
51602;SDS011;37954;51.980;5.850;2023-04-25T02:08:35;9.67;;;3.10;;
51602;SDS011;37954;51.980;5.850;2023-04-25T02:12:51;10.77;;;2.97;;
51602;SDS011;37954;51.980;5.850;2023-04-25T02:17:09;15.50;;;3.30;;
51602;SDS011;37954;51.980;5.850;2023-04-25T02:21:21;7.97;;;2.83;;
51602;SDS011;37954;51.980;5.850;2023-04-25T02:25:33;8.43;;;3.07;;
51602;SDS011;37954;51.980;5.850;2023-04-25T02:29:45;10.73;;;3.23;;
51602;SDS011;37954;51.980;5.850;2023-04-25T02:33:57;9.00;;;3.57;;
51602;SDS011;37954;51.980;5.850;2023-04-25T02:38:09;9.13;;;3.30;;
51602;SDS011;37954;51.980;5.850;2023-04-25T02:42:20;9.00;;;2.90;;
51602;SDS011;37954;51.980;5.850;2023-04-25T02:46:33;12.83;;;3.27;;
51602;SDS011;37954;51.980;5.850;2023-04-25T02:50:50;8.80;;;2.43;;
51602;SDS011;37954;51.980;5.850;2023-04-25T02:55:02;8.73;;;3.40;;
51602;SDS011;37954;51.980;5.850;2023-04-25T02:59:15;9.30;;;2.97;;
51602;SDS011;37954;51.980;5.850;2023-04-25T03:03:27;9.73;;;3.13;;
51602;SDS011;37954;51.980;5.850;2023-04-25T03:07:38;11.33;;;3.73;;
51602;SDS011;37954;51.980;5.850;2023-04-25T03:11:51;8.93;;;2.57;;
51602;SDS011;37954;51.980;5.850;2023-04-25T03:16:03;9.50;;;3.17;;
51602;SDS011;37954;51.980;5.850;2023-04-25T03:20:15;7.17;;;3.10;;
51602;SDS011;37954;51.980;5.850;2023-04-25T03:24:27;7.37;;;2.77;;
51602;SDS011;37954;51.980;5.850;2023-04-25T03:28:39;8.77;;;2.97;;
51602;SDS011;37954;51.980;5.850;2023-04-25T03:32:51;8.67;;;2.80;;
51602;SDS011;37954;51.980;5.850;2023-04-25T03:37:02;8.03;;;3.03;;
51602;SDS011;37954;51.980;5.850;2023-04-25T03:41:19;5.40;;;2.77;;
51602;SDS011;37954;51.980;5.850;2023-04-25T03:45:36;9.23;;;2.67;;
51602;SDS011;37954;51.980;5.850;2023-04-25T03:49:48;5.13;;;2.50;;
51602;SDS011;37954;51.980;5.850;2023-04-25T03:54:05;6.53;;;2.63;;
51602;SDS011;37954;51.980;5.850;2023-04-25T03:58:35;5.87;;;2.87;;
51602;SDS011;37954;51.980;5.850;2023-04-25T04:02:47;9.30;;;2.53;;
51602;SDS011;37954;51.980;5.850;2023-04-25T04:06:59;10.70;;;3.23;;
51602;SDS011;37954;51.980;5.850;2023-04-25T04:11:14;8.43;;;2.53;;
51602;SDS011;37954;51.980;5.850;2023-04-25T04:15:26;10.97;;;3.00;;
51602;SDS011;37954;51.980;5.850;2023-04-25T04:19:38;8.60;;;2.90;;
51602;SDS011;37954;51.980;5.850;2023-04-25T04:23:54;7.83;;;3.83;;
51602;SDS011;37954;51.980;5.850;2023-04-25T04:28:06;13.20;;;4.97;;
51602;SDS011;37954;51.980;5.850;2023-04-25T04:32:32;10.40;;;4.67;;
51602;SDS011;37954;51.980;5.850;2023-04-25T04:36:47;7.73;;;4.10;;
51602;SDS011;37954;51.980;5.850;2023-04-25T04:40:59;6.57;;;3.13;;
51602;SDS011;37954;51.980;5.850;2023-04-25T04:45:29;6.87;;;2.93;;
51602;SDS011;37954;51.980;5.850;2023-04-25T04:50:05;8.23;;;3.50;;
51602;SDS011;37954;51.980;5.850;2023-04-25T04:54:37;11.87;;;3.57;;
51602;SDS011;37954;51.980;5.850;2023-04-25T04:59:04;4.87;;;2.50;;
51602;SDS011;37954;51.980;5.850;2023-04-25T05:03:26;8.87;;;2.70;;
51602;SDS011;37954;51.980;5.850;2023-04-25T05:08:01;12.57;;;2.83;;
51602;SDS011;37954;51.980;5.850;2023-04-25T05:12:24;8.57;;;2.93;;
51602;SDS011;37954;51.980;5.850;2023-04-25T05:16:55;10.30;;;2.90;;
51602;SDS011;37954;51.980;5.850;2023-04-25T05:21:27;8.07;;;2.73;;
51602;SDS011;37954;51.980;5.850;2023-04-25T05:25:53;12.23;;;2.87;;
51602;SDS011;37954;51.980;5.850;2023-04-25T05:30:28;11.87;;;3.63;;
51602;SDS011;37954;51.980;5.850;2023-04-25T05:34:50;11.67;;;3.30;;
51602;SDS011;37954;51.980;5.850;2023-04-25T05:39:21;11.37;;;2.90;;
51602;SDS011;37954;51.980;5.850;2023-04-25T05:43:57;6.07;;;3.03;;
51602;SDS011;37954;51.980;5.850;2023-04-25T05:48:14;9.67;;;3.53;;
51602;SDS011;37954;51.980;5.850;2023-04-25T05:52:43;6.27;;;3.03;;
51602;SDS011;37954;51.980;5.850;2023-04-25T05:57:07;12.73;;;2.97;;
51602;SDS011;37954;51.980;5.850;2023-04-25T06:01:19;8.43;;;3.30;;
51602;SDS011;37954;51.980;5.850;2023-04-25T06:05:31;4.87;;;2.80;;
51602;SDS011;37954;51.980;5.850;2023-04-25T06:09:43;6.53;;;2.00;;
51602;SDS011;37954;51.980;5.850;2023-04-25T06:13:56;6.87;;;2.33;;
51602;SDS011;37954;51.980;5.850;2023-04-25T06:18:08;6.17;;;2.47;;
51602;SDS011;37954;51.980;5.850;2023-04-25T06:22:20;6.87;;;2.10;;
51602;SDS011;37954;51.980;5.850;2023-04-25T06:26:32;8.87;;;2.77;;
51602;SDS011;37954;51.980;5.850;2023-04-25T06:30:44;6.43;;;2.53;;
51602;SDS011;37954;51.980;5.850;2023-04-25T06:35:01;4.57;;;2.73;;
51602;SDS011;37954;51.980;5.850;2023-04-25T06:39:13;11.83;;;2.33;;
51602;SDS011;37954;51.980;5.850;2023-04-25T06:43:28;5.93;;;2.47;;
51602;SDS011;37954;51.980;5.850;2023-04-25T06:48:43;5.17;;;2.13;;
51602;SDS011;37954;51.980;5.850;2023-04-25T06:52:58;7.43;;;2.30;;
51602;SDS011;37954;51.980;5.850;2023-04-25T06:57:20;10.87;;;2.50;;
51602;SDS011;37954;51.980;5.850;2023-04-25T07:01:35;4.93;;;2.20;;
51602;SDS011;37954;51.980;5.850;2023-04-25T07:05:56;5.83;;;2.27;;
51602;SDS011;37954;51.980;5.850;2023-04-25T07:10:14;7.83;;;2.33;;
51602;SDS011;37954;51.980;5.850;2023-04-25T07:14:26;1.97;;;1.57;;
51602;SDS011;37954;51.980;5.850;2023-04-25T07:18:39;3.83;;;2.00;;
51602;SDS011;37954;51.980;5.850;2023-04-25T07:22:53;4.85;;;2.00;;
51602;SDS011;37954;51.980;5.850;2023-04-25T07:27:50;2.95;;;1.73;;
51602;SDS011;37954;51.980;5.850;2023-04-25T07:38:14;2.72;;;1.55;;
51602;SDS011;37954;51.980;5.850;2023-04-25T07:42:27;5.18;;;1.70;;
51602;SDS011;37954;51.980;5.850;2023-04-25T07:46:39;2.45;;;1.08;;
51602;SDS011;37954;51.980;5.850;2023-04-25T07:50:53;4.60;;;1.45;;
51602;SDS011;37954;51.980;5.850;2023-04-25T07:55:15;3.05;;;1.50;;
51602;SDS011;37954;51.980;5.850;2023-04-25T07:59:57;6.13;;;1.60;;
51602;SDS011;37954;51.980;5.850;2023-04-25T08:04:24;3.78;;;1.70;;
51602;SDS011;37954;51.980;5.850;2023-04-25T08:08:48;3.30;;;1.20;;
51602;SDS011;37954;51.980;5.850;2023-04-25T08:13:06;3.28;;;1.42;;
51602;SDS011;37954;51.980;5.850;2023-04-25T08:17:19;3.72;;;1.30;;
51602;SDS011;37954;51.980;5.850;2023-04-25T08:21:31;3.10;;;1.40;;
51602;SDS011;37954;51.980;5.850;2023-04-25T08:25:47;3.90;;;1.58;;
51602;SDS011;37954;51.980;5.850;2023-04-25T08:30:08;2.50;;;1.27;;
51602;SDS011;37954;51.980;5.850;2023-04-25T08:34:23;3.30;;;1.48;;
51602;SDS011;37954;51.980;5.850;2023-04-25T08:38:37;1.73;;;1.08;;
51602;SDS011;37954;51.980;5.850;2023-04-25T08:42:53;2.33;;;1.38;;
51602;SDS011;37954;51.980;5.850;2023-04-25T08:47:06;3.53;;;1.35;;
51602;SDS011;37954;51.980;5.850;2023-04-25T08:51:30;3.80;;;1.20;;
51602;SDS011;37954;51.980;5.850;2023-04-25T08:55:49;3.38;;;1.30;;
51602;SDS011;37954;51.980;5.850;2023-04-25T09:00:12;3.25;;;1.17;;
51602;SDS011;37954;51.980;5.850;2023-04-25T09:04:27;3.88;;;1.17;;
51602;SDS011;37954;51.980;5.850;2023-04-25T09:08:43;2.90;;;1.02;;
51602;SDS011;37954;51.980;5.850;2023-04-25T09:13:02;3.80;;;1.50;;
51602;SDS011;37954;51.980;5.850;2023-04-25T10:22:17;1.60;;;0.75;;
51602;SDS011;37954;51.980;5.850;2023-04-25T10:26:31;2.72;;;1.00;;
51602;SDS011;37954;51.980;5.850;2023-04-25T10:31:17;1.70;;;1.10;;
51602;SDS011;37954;51.980;5.850;2023-04-25T10:35:25;1.45;;;0.73;;
51602;SDS011;37954;51.980;5.850;2023-04-25T10:39:39;3.45;;;1.30;;
51602;SDS011;37954;51.980;5.850;2023-04-25T10:43:58;4.03;;;1.20;;
51602;SDS011;37954;51.980;5.850;2023-04-25T10:48:24;0.95;;;0.90;;
51602;SDS011;37954;51.980;5.850;2023-04-25T10:52:40;2.13;;;1.20;;
51602;SDS011;37954;51.980;5.850;2023-04-25T10:56:52;1.23;;;0.77;;
51602;SDS011;37954;51.980;5.850;2023-04-25T11:01:04;1.95;;;1.10;;
51602;SDS011;37954;51.980;5.850;2023-04-25T11:05:36;2.65;;;1.20;;
51602;SDS011;37954;51.980;5.850;2023-04-25T11:10:05;2.65;;;0.90;;
51602;SDS011;37954;51.980;5.850;2023-04-25T11:14:19;2.83;;;1.30;;
51602;SDS011;37954;51.980;5.850;2023-04-25T11:18:31;2.00;;;0.90;;
51602;SDS011;37954;51.980;5.850;2023-04-25T11:22:46;2.90;;;1.17;;
51602;SDS011;37954;51.980;5.850;2023-04-25T11:27:01;1.30;;;1.08;;
51602;SDS011;37954;51.980;5.850;2023-04-25T11:31:24;1.45;;;1.20;;
51602;SDS011;37954;51.980;5.850;2023-04-25T11:35:37;3.15;;;0.93;;
51602;SDS011;37954;51.980;5.850;2023-04-25T11:39:55;1.23;;;0.88;;
51602;SDS011;37954;51.980;5.850;2023-04-25T11:44:07;4.60;;;1.10;;
51602;SDS011;37954;51.980;5.850;2023-04-25T11:48:19;0.70;;;0.70;;
51602;SDS011;37954;51.980;5.850;2023-04-25T11:52:40;3.80;;;1.15;;
51602;SDS011;37954;51.980;5.850;2023-04-25T11:56:55;3.85;;;1.00;;
51602;SDS011;37954;51.980;5.850;2023-04-25T12:01:08;1.60;;;0.88;;
51602;SDS011;37954;51.980;5.850;2023-04-25T12:05:20;1.65;;;0.75;;
51602;SDS011;37954;51.980;5.850;2023-04-25T12:09:43;3.65;;;0.85;;
51602;SDS011;37954;51.980;5.850;2023-04-25T12:14:05;2.50;;;0.80;;
51602;SDS011;37954;51.980;5.850;2023-04-25T12:18:20;2.35;;;1.20;;
51602;SDS011;37954;51.980;5.850;2023-04-25T12:22:35;2.30;;;1.02;;
51602;SDS011;37954;51.980;5.850;2023-04-25T12:27:00;2.63;;;1.00;;
51602;SDS011;37954;51.980;5.850;2023-04-25T12:31:14;3.05;;;1.27;;
51602;SDS011;37954;51.980;5.850;2023-04-25T12:35:29;2.22;;;1.08;;
51602;SDS011;37954;51.980;5.850;2023-04-25T12:39:41;1.92;;;0.73;;
51602;SDS011;37954;51.980;5.850;2023-04-25T12:43:53;3.72;;;1.10;;
51602;SDS011;37954;51.980;5.850;2023-04-25T12:48:05;1.08;;;0.88;;
51602;SDS011;37954;51.980;5.850;2023-04-25T12:52:17;2.83;;;1.38;;
51602;SDS011;37954;51.980;5.850;2023-04-25T12:56:28;2.50;;;1.10;;
51602;SDS011;37954;51.980;5.850;2023-04-25T13:00:40;1.80;;;1.00;;
51602;SDS011;37954;51.980;5.850;2023-04-25T13:04:53;2.20;;;0.80;;
51602;SDS011;37954;51.980;5.850;2023-04-25T13:09:05;2.75;;;1.10;;
51602;SDS011;37954;51.980;5.850;2023-04-25T13:13:18;6.65;;;1.38;;
51602;SDS011;37954;51.980;5.850;2023-04-25T13:17:29;3.15;;;1.13;;
51602;SDS011;37954;51.980;5.850;2023-04-25T13:21:41;2.53;;;1.33;;
51602;SDS011;37954;51.980;5.850;2023-04-25T13:25:53;1.58;;;1.15;;
51602;SDS011;37954;51.980;5.850;2023-04-25T13:30:06;1.95;;;1.05;;
51602;SDS011;37954;51.980;5.850;2023-04-25T13:34:18;2.08;;;0.88;;
51602;SDS011;37954;51.980;5.850;2023-04-25T13:38:30;2.40;;;1.00;;
51602;SDS011;37954;51.980;5.850;2023-04-25T13:42:42;4.63;;;1.25;;
51602;SDS011;37954;51.980;5.850;2023-04-25T13:46:55;2.55;;;1.05;;
51602;SDS011;37954;51.980;5.850;2023-04-25T13:51:07;1.30;;;0.90;;
51602;SDS011;37954;51.980;5.850;2023-04-25T13:55:19;1.95;;;0.90;;
51602;SDS011;37954;51.980;5.850;2023-04-25T13:59:31;1.63;;;1.00;;
51602;SDS011;37954;51.980;5.850;2023-04-25T14:03:43;1.20;;;0.98;;
51602;SDS011;37954;51.980;5.850;2023-04-25T14:07:55;2.33;;;0.85;;
51602;SDS011;37954;51.980;5.850;2023-04-25T14:12:07;2.00;;;1.20;;
51602;SDS011;37954;51.980;5.850;2023-04-25T14:16:19;1.58;;;0.90;;
51602;SDS011;37954;51.980;5.850;2023-04-25T14:20:31;1.55;;;0.95;;
51602;SDS011;37954;51.980;5.850;2023-04-25T14:24:42;5.57;;;1.17;;
51602;SDS011;37954;51.980;5.850;2023-04-25T14:28:54;2.90;;;0.95;;
51602;SDS011;37954;51.980;5.850;2023-04-25T14:33:06;9.52;;;1.30;;
51602;SDS011;37954;51.980;5.850;2023-04-25T14:37:18;1.95;;;1.13;;
51602;SDS011;37954;51.980;5.850;2023-04-25T14:41:29;1.73;;;0.80;;
51602;SDS011;37954;51.980;5.850;2023-04-25T14:45:41;2.25;;;0.90;;
51602;SDS011;37954;51.980;5.850;2023-04-25T14:49:53;2.35;;;0.80;;
51602;SDS011;37954;51.980;5.850;2023-04-25T14:54:05;2.20;;;1.20;;
51602;SDS011;37954;51.980;5.850;2023-04-25T14:58:17;1.17;;;0.98;;
51602;SDS011;37954;51.980;5.850;2023-04-25T15:02:29;1.85;;;0.90;;
51602;SDS011;37954;51.980;5.850;2023-04-25T15:06:41;1.55;;;1.10;;
51602;SDS011;37954;51.980;5.850;2023-04-25T15:10:53;1.67;;;1.20;;
51602;SDS011;37954;51.980;5.850;2023-04-25T15:15:05;2.03;;;1.00;;
51602;SDS011;37954;51.980;5.850;2023-04-25T15:19:18;2.15;;;1.02;;
51602;SDS011;37954;51.980;5.850;2023-04-25T15:23:29;1.23;;;0.70;;
51602;SDS011;37954;51.980;5.850;2023-04-25T15:27:41;3.78;;;1.40;;
51602;SDS011;37954;51.980;5.850;2023-04-25T15:31:55;2.83;;;1.17;;
51602;SDS011;37954;51.980;5.850;2023-04-25T15:36:07;2.65;;;1.27;;
51602;SDS011;37954;51.980;5.850;2023-04-25T15:40:19;4.13;;;1.55;;
51602;SDS011;37954;51.980;5.850;2023-04-25T15:44:30;2.53;;;1.27;;
51602;SDS011;37954;51.980;5.850;2023-04-25T15:48:42;3.95;;;1.30;;
51602;SDS011;37954;51.980;5.850;2023-04-25T15:52:54;2.20;;;1.15;;
51602;SDS011;37954;51.980;5.850;2023-04-25T15:57:06;2.08;;;0.98;;
51602;SDS011;37954;51.980;5.850;2023-04-25T16:01:20;1.20;;;0.90;;
51602;SDS011;37954;51.980;5.850;2023-04-25T16:05:34;3.72;;;1.27;;
51602;SDS011;37954;51.980;5.850;2023-04-25T16:09:47;2.50;;;1.00;;
51602;SDS011;37954;51.980;5.850;2023-04-25T16:13:59;1.33;;;0.93;;
51602;SDS011;37954;51.980;5.850;2023-04-25T16:18:11;2.17;;;1.02;;
51602;SDS011;37954;51.980;5.850;2023-04-25T16:22:23;1.58;;;0.98;;
51602;SDS011;37954;51.980;5.850;2023-04-25T16:26:35;3.05;;;1.02;;
51602;SDS011;37954;51.980;5.850;2023-04-25T16:30:47;4.30;;;1.30;;
51602;SDS011;37954;51.980;5.850;2023-04-25T16:34:59;1.60;;;0.82;;
51602;SDS011;37954;51.980;5.850;2023-04-25T16:39:11;2.38;;;1.20;;
51602;SDS011;37954;51.980;5.850;2023-04-25T16:43:22;3.03;;;0.93;;
51602;SDS011;37954;51.980;5.850;2023-04-25T16:47:34;1.70;;;0.80;;
51602;SDS011;37954;51.980;5.850;2023-04-25T16:51:46;3.47;;;1.13;;
51602;SDS011;37954;51.980;5.850;2023-04-25T16:55:58;2.67;;;1.30;;
51602;SDS011;37954;51.980;5.850;2023-04-25T17:00:10;3.60;;;1.05;;
51602;SDS011;37954;51.980;5.850;2023-04-25T17:04:23;3.75;;;1.27;;
51602;SDS011;37954;51.980;5.850;2023-04-25T17:08:35;2.33;;;0.80;;
51602;SDS011;37954;51.980;5.850;2023-04-25T17:12:47;4.30;;;1.15;;
51602;SDS011;37954;51.980;5.850;2023-04-25T17:17:00;3.90;;;1.00;;
51602;SDS011;37954;51.980;5.850;2023-04-25T17:21:12;2.53;;;1.08;;
51602;SDS011;37954;51.980;5.850;2023-04-25T17:25:23;10.95;;;1.67;;
51602;SDS011;37954;51.980;5.850;2023-04-25T17:29:35;5.28;;;1.40;;
51602;SDS011;37954;51.980;5.850;2023-04-25T17:33:47;4.53;;;1.77;;
51602;SDS011;37954;51.980;5.850;2023-04-25T17:37:59;2.88;;;1.50;;
51602;SDS011;37954;51.980;5.850;2023-04-25T17:42:11;7.90;;;2.30;;
51602;SDS011;37954;51.980;5.850;2023-04-25T17:46:22;5.30;;;2.40;;
51602;SDS011;37954;51.980;5.850;2023-04-25T17:50:34;5.73;;;1.73;;
51602;SDS011;37954;51.980;5.850;2023-04-25T17:54:46;5.70;;;2.25;;
51602;SDS011;37954;51.980;5.850;2023-04-25T17:59:00;4.33;;;1.43;;
51602;SDS011;37954;51.980;5.850;2023-04-25T18:03:11;3.77;;;1.40;;
51602;SDS011;37954;51.980;5.850;2023-04-25T18:07:23;2.45;;;1.40;;
51602;SDS011;37954;51.980;5.850;2023-04-25T18:11:35;2.27;;;1.33;;
51602;SDS011;37954;51.980;5.850;2023-04-25T18:15:47;6.83;;;2.07;;
51602;SDS011;37954;51.980;5.850;2023-04-25T18:19:59;5.37;;;2.80;;
51602;SDS011;37954;51.980;5.850;2023-04-25T18:24:12;5.23;;;1.90;;
51602;SDS011;37954;51.980;5.850;2023-04-25T18:28:24;2.80;;;1.47;;
51602;SDS011;37954;51.980;5.850;2023-04-25T18:32:36;3.53;;;1.70;;
51602;SDS011;37954;51.980;5.850;2023-04-25T18:36:48;3.33;;;1.40;;
51602;SDS011;37954;51.980;5.850;2023-04-25T18:41:02;6.03;;;1.90;;
51602;SDS011;37954;51.980;5.850;2023-04-25T18:45:34;2.47;;;1.50;;
51602;SDS011;37954;51.980;5.850;2023-04-25T18:49:46;5.90;;;1.67;;
51602;SDS011;37954;51.980;5.850;2023-04-25T18:53:58;3.47;;;1.50;;
51602;SDS011;37954;51.980;5.850;2023-04-25T18:58:10;4.13;;;1.60;;
51602;SDS011;37954;51.980;5.850;2023-04-25T19:02:22;5.40;;;1.97;;
51602;SDS011;37954;51.980;5.850;2023-04-25T19:06:34;5.77;;;2.20;;
51602;SDS011;37954;51.980;5.850;2023-04-25T19:10:47;2.97;;;1.60;;
51602;SDS011;37954;51.980;5.850;2023-04-25T19:15:00;4.57;;;2.20;;
51602;SDS011;37954;51.980;5.850;2023-04-25T19:19:12;3.50;;;1.50;;
51602;SDS011;37954;51.980;5.850;2023-04-25T19:23:24;3.37;;;1.73;;
51602;SDS011;37954;51.980;5.850;2023-04-25T19:27:36;5.10;;;1.53;;
51602;SDS011;37954;51.980;5.850;2023-04-25T19:31:48;2.40;;;1.80;;
51602;SDS011;37954;51.980;5.850;2023-04-25T19:36:00;5.63;;;1.80;;
51602;SDS011;37954;51.980;5.850;2023-04-25T19:40:12;9.43;;;1.90;;
51602;SDS011;37954;51.980;5.850;2023-04-25T19:44:26;4.07;;;2.27;;
51602;SDS011;37954;51.980;5.850;2023-04-25T19:48:38;5.63;;;2.23;;
51602;SDS011;37954;51.980;5.850;2023-04-25T19:52:50;5.50;;;2.53;;
51602;SDS011;37954;51.980;5.850;2023-04-25T19:57:03;4.43;;;1.83;;
51602;SDS011;37954;51.980;5.850;2023-04-25T20:01:15;4.13;;;1.87;;
51602;SDS011;37954;51.980;5.850;2023-04-25T20:05:27;3.97;;;1.90;;
51602;SDS011;37954;51.980;5.850;2023-04-25T20:09:39;7.93;;;2.30;;
51602;SDS011;37954;51.980;5.850;2023-04-25T20:13:51;5.13;;;2.00;;
51602;SDS011;37954;51.980;5.850;2023-04-25T20:18:03;9.50;;;2.27;;
51602;SDS011;37954;51.980;5.850;2023-04-25T20:22:15;4.70;;;2.10;;
51602;SDS011;37954;51.980;5.850;2023-04-25T20:26:27;6.07;;;2.30;;
51602;SDS011;37954;51.980;5.850;2023-04-25T20:30:39;5.27;;;2.37;;
51602;SDS011;37954;51.980;5.850;2023-04-25T20:34:51;4.57;;;2.10;;
51602;SDS011;37954;51.980;5.850;2023-04-25T20:43:34;2.67;;;2.00;;
51602;SDS011;37954;51.980;5.850;2023-04-25T20:47:48;5.80;;;2.67;;
51602;SDS011;37954;51.980;5.850;2023-04-25T20:52:00;5.53;;;2.20;;
51602;SDS011;37954;51.980;5.850;2023-04-25T20:56:13;3.93;;;2.40;;
51602;SDS011;37954;51.980;5.850;2023-04-25T21:00:25;4.50;;;2.30;;
51602;SDS011;37954;51.980;5.850;2023-04-25T21:04:39;5.47;;;2.53;;
51602;SDS011;37954;51.980;5.850;2023-04-25T21:08:51;5.37;;;2.10;;
51602;SDS011;37954;51.980;5.850;2023-04-25T21:13:05;8.60;;;2.47;;
51602;SDS011;37954;51.980;5.850;2023-04-25T21:17:17;4.07;;;2.20;;
51602;SDS011;37954;51.980;5.850;2023-04-25T21:21:29;5.83;;;2.73;;
51602;SDS011;37954;51.980;5.850;2023-04-25T21:25:42;5.70;;;2.47;;
51602;SDS011;37954;51.980;5.850;2023-04-25T21:29:54;10.37;;;2.93;;
51602;SDS011;37954;51.980;5.850;2023-04-25T21:34:05;5.63;;;2.37;;
51602;SDS011;37954;51.980;5.850;2023-04-25T21:38:17;6.47;;;2.67;;
51602;SDS011;37954;51.980;5.850;2023-04-25T21:42:29;7.60;;;3.10;;
51602;SDS011;37954;51.980;5.850;2023-04-25T21:46:40;8.03;;;3.13;;
51602;SDS011;37954;51.980;5.850;2023-04-25T21:50:53;5.27;;;2.80;;
51602;SDS011;37954;51.980;5.850;2023-04-25T21:55:06;5.93;;;2.80;;
51602;SDS011;37954;51.980;5.850;2023-04-25T21:59:18;3.47;;;2.40;;
51602;SDS011;37954;51.980;5.850;2023-04-25T22:03:32;7.27;;;2.83;;
51602;SDS011;37954;51.980;5.850;2023-04-25T22:07:44;6.73;;;2.90;;
51602;SDS011;37954;51.980;5.850;2023-04-25T22:11:57;6.97;;;2.53;;
51602;SDS011;37954;51.980;5.850;2023-04-25T22:16:09;6.17;;;2.40;;
51602;SDS011;37954;51.980;5.850;2023-04-25T22:20:22;8.90;;;2.43;;
51602;SDS011;37954;51.980;5.850;2023-04-25T22:24:36;5.87;;;2.70;;
51602;SDS011;37954;51.980;5.850;2023-04-25T22:28:49;4.37;;;3.17;;
51602;SDS011;37954;51.980;5.850;2023-04-25T22:33:01;7.80;;;3.20;;
51602;SDS011;37954;51.980;5.850;2023-04-25T22:37:13;6.53;;;3.03;;
51602;SDS011;37954;51.980;5.850;2023-04-25T22:41:25;10.43;;;3.33;;
51602;SDS011;37954;51.980;5.850;2023-04-25T22:45:37;7.37;;;3.00;;
51602;SDS011;37954;51.980;5.850;2023-04-25T22:49:48;3.77;;;3.40;;
51602;SDS011;37954;51.980;5.850;2023-04-25T22:54:00;12.13;;;3.43;;
51602;SDS011;37954;51.980;5.850;2023-04-25T22:58:11;6.67;;;3.10;;
51602;SDS011;37954;51.980;5.850;2023-04-25T23:02:23;23.30;;;4.07;;
51602;SDS011;37954;51.980;5.850;2023-04-25T23:06:36;4.67;;;3.00;;
51602;SDS011;37954;51.980;5.850;2023-04-25T23:10:48;5.73;;;3.47;;
51602;SDS011;37954;51.980;5.850;2023-04-25T23:14:59;6.10;;;3.00;;
51602;SDS011;37954;51.980;5.850;2023-04-25T23:19:12;7.20;;;3.53;;
51602;SDS011;37954;51.980;5.850;2023-04-25T23:23:24;7.77;;;3.60;;
51602;SDS011;37954;51.980;5.850;2023-04-25T23:27:36;3.97;;;3.10;;
51602;SDS011;37954;51.980;5.850;2023-04-25T23:31:48;4.90;;;3.07;;
51602;SDS011;37954;51.980;5.850;2023-04-25T23:36:00;8.83;;;3.70;;
51602;SDS011;37954;51.980;5.850;2023-04-25T23:40:11;16.80;;;3.67;;
51602;SDS011;37954;51.980;5.850;2023-04-25T23:44:23;10.13;;;3.67;;
51602;SDS011;37954;51.980;5.850;2023-04-25T23:48:35;4.53;;;3.47;;
51602;SDS011;37954;51.980;5.850;2023-04-25T23:52:46;8.47;;;3.50;;
51602;SDS011;37954;51.980;5.850;2023-04-25T23:56:58;13.57;;;4.43;;
